Time;durP1;ratioP1;P1;durP2;ratioP2;P2;SDS_P1;SDS_P2;PMS_P1;PMS_P2;Temp;Humidity;BMP_temperature;BMP_pressure;BME280_temperature;BME280_humidity;BME280_pressure;Samples;Min_cycle;Max_cycle;Signal;HPM_P1;HPM_P2
2022/10/24 00:01:07;;;;;;;12.38;6.25;;;;;;;8.85;69.45;99152.16;6073359;23;20023;-80
2022/10/24 00:03:33;;;;;;;10.90;6.13;;;;;;;8.93;69.30;99168.50;6104990;23;20038;-77
2022/10/24 00:05:59;;;;;;;9.10;5.80;;;;;;;8.86;69.55;99151.28;6104021;23;20105;-77
2022/10/24 00:08:25;;;;;;;11.07;6.10;;;;;;;8.91;69.67;99159.88;6053510;23;20029;-79
2022/10/24 00:10:51;;;;;;;10.95;5.32;;;;;;;8.85;69.63;99150.38;6102283;23;20085;-79
2022/10/24 00:13:17;;;;;;;11.90;6.30;;;;;;;8.95;69.76;99169.31;6097954;23;20022;-79
2022/10/24 00:15:48;;;;;;;10.18;6.05;;;;;;;8.87;69.33;99155.59;6072513;23;20022;-79
2022/10/24 00:18:15;;;;;;;11.38;6.40;;;;;;;8.84;69.46;99155.63;6072234;23;20042;-80
2022/10/24 00:20:42;;;;;;;13.93;6.38;;;;;;;8.78;69.04;99156.56;6096450;23;20022;-79
2022/10/24 00:23:09;;;;;;;11.82;6.30;;;;;;;8.85;69.48;99158.19;6096542;23;20007;-80
2022/10/24 00:25:35;;;;;;;13.77;7.22;;;;;;;8.84;69.57;99153.88;6047659;23;20421;-81
2022/10/24 00:28:01;;;;;;;11.73;6.82;;;;;;;8.82;69.75;99144.38;6097072;23;20018;-77
2022/10/24 00:30:27;;;;;;;10.35;5.70;;;;;;;8.65;69.24;99127.31;6098339;23;20073;-78
2022/10/24 00:32:53;;;;;;;9.98;5.55;;;;;;;8.80;69.00;99157.41;6097310;23;20028;-78
2022/10/24 00:35:19;;;;;;;9.05;5.30;;;;;;;8.80;69.52;99156.53;6097926;23;20117;-79
2022/10/24 00:37:45;;;;;;;7.90;5.13;;;;;;;8.68;69.38;99142.84;6097828;23;20018;-80
2022/10/24 00:40:16;;;;;;;9.35;5.55;;;;;;;8.76;69.12;99154.84;6047706;23;20077;-78
2022/10/24 00:42:42;;;;;;;8.00;5.07;;;;;;;8.57;69.18;99129.13;6097997;23;20011;-78
2022/10/24 00:45:54;;;;;;;6.72;4.45;;;;;;;8.71;68.93;99152.31;6076432;23;20014;-76
2022/10/24 00:48:39;;;;;;;6.90;4.03;;;;;;;8.51;69.06;99121.41;6018029;23;20122;-79
2022/10/24 00:51:27;;;;;;;9.35;4.78;;;;;;;8.08;68.77;99063.94;6013761;23;20023;-77
2022/10/24 00:53:59;;;;;;;10.35;4.13;;;;;;;8.60;68.90;99152.44;6078564;23;20119;-77
2022/10/24 00:56:29;;;;;;;7.20;4.22;;;;;;;8.63;68.98;99148.94;6046569;23;20021;-79
2022/10/24 00:58:56;;;;;;;8.90;4.60;;;;;;;8.63;68.91;99155.00;6070800;23;20045;-82
2022/10/24 01:01:24;;;;;;;8.25;4.60;;;;;;;8.63;68.86;99157.59;6070856;23;20026;-78
2022/10/24 01:03:50;;;;;;;6.53;3.95;;;;;;;8.61;68.50;99163.69;6094524;23;20018;-80
2022/10/24 01:06:29;;;;;;;7.97;4.68;;;;;;;8.61;68.64;99163.69;6071137;23;20122;-77
2022/10/24 01:09:19;;;;;;;9.32;4.70;;;;;;;8.59;68.09;99163.69;6096407;23;20014;-77
2022/10/24 01:12:22;;;;;;;7.28;4.68;;;;;;;8.59;68.99;99161.97;6046729;23;20465;-82
2022/10/24 01:14:48;;;;;;;7.43;4.65;;;;;;;8.59;68.13;99161.06;6096465;23;20018;-80
2022/10/24 01:17:32;;;;;;;6.78;4.68;;;;;;;8.61;68.56;99156.75;6071661;23;20029;-80
2022/10/24 01:20:04;;;;;;;7.25;4.53;;;;;;;8.62;68.21;99162.78;6101795;23;20038;-79
2022/10/24 01:22:37;;;;;;;;;;;;;;;8.62;68.17;99157.59;6101011;23;20456;-80
2022/10/24 01:25:18;;;;;;;7.65;5.20;;;;;;;8.62;67.88;99158.47;6075206;23;19913;-79
2022/10/24 01:28:03;;;;;;;8.45;5.25;;;;;;;8.49;67.84;99130.94;6121269;23;20037;-79
2022/10/24 01:30:40;;;;;;;9.77;5.25;;;;;;;8.46;67.73;99141.31;6092493;23;20022;-79
2022/10/24 01:33:36;;;;;;;7.72;5.20;;;;;;;8.54;67.68;99161.13;6113349;23;20014;-78
2022/10/24 01:36:09;;;;;;;9.32;5.20;;;;;;;8.44;67.61;99157.75;6070974;23;20021;-78
2022/10/24 01:38:56;;;;;;;8.70;5.50;;;;;;;8.24;67.68;99132.03;6075554;23;20018;-78
2022/10/24 01:41:27;;;;;;;9.98;6.68;;;;;;;8.38;67.56;99146.59;6102467;23;20018;-78
2022/10/24 01:44:05;;;;;;;11.98;6.82;;;;;;;8.36;67.60;99154.38;6102122;23;20048;-78
2022/10/24 01:46:36;;;;;;;10.85;6.38;;;;;;;8.43;67.47;99169.00;6099717;23;20104;-79
2022/10/24 01:49:11;;;;;;;11.35;6.90;;;;;;;8.35;67.61;99157.84;6074334;23;20022;-79
2022/10/24 01:51:38;;;;;;;10.85;6.65;;;;;;;8.33;67.16;99149.22;6048106;23;20097;-78
2022/10/24 01:54:05;;;;;;;11.40;6.88;;;;;;;8.48;67.23;99168.09;6094234;23;20023;-80
2022/10/24 01:56:31;;;;;;;11.93;6.47;;;;;;;8.40;67.38;99150.88;6094436;23;20105;-80
2022/10/24 01:59:28;;;;;;;11.93;6.63;;;;;;;8.51;67.09;99155.97;6070559;23;20021;-78
2022/10/24 02:01:58;;;;;;;13.55;7.10;;;;;;;8.39;66.90;99143.97;6059041;23;20114;-80
2022/10/24 02:04:26;;;;;;;12.30;7.30;;;;;;;8.31;66.92;99132.81;6095697;23;20029;-80
2022/10/24 02:06:55;;;;;;;11.90;6.35;;;;;;;8.42;67.01;99150.84;6070077;23;20029;-79
2022/10/24 02:09:23;;;;;;;14.55;7.40;;;;;;;8.42;66.41;99151.72;6051897;23;20054;-78
2022/10/24 02:11:52;;;;;;;14.57;7.10;;;;;;;8.48;66.34;99160.31;6095020;23;20456;-77
2022/10/24 02:14:33;;;;;;;17.10;7.65;;;;;;;8.41;66.09;99157.78;6094920;23;20030;-78
2022/10/24 02:17:02;;;;;;;13.13;7.28;;;;;;;8.43;66.03;99157.75;6069890;23;20018;-82
2022/10/24 02:19:29;;;;;;;13.52;7.15;;;;;;;8.40;66.32;99147.41;6095690;23;20077;-78
2022/10/24 02:22:27;;;;;;;12.05;6.78;;;;;;;8.47;66.21;99168.97;6094806;23;20038;-79
2022/10/24 02:25:02;;;;;;;13.75;7.05;;;;;;;8.38;66.03;99165.59;6046069;23;20029;-81
2022/10/24 02:27:47;;;;;;;12.57;8.00;;;;;;;8.31;66.05;99157.88;6046796;23;20038;-79
2022/10/24 02:30:23;;;;;;;12.43;7.50;;;;;;;8.42;66.21;99172.47;6043544;23;20030;-77
2022/10/24 02:32:53;;;;;;;14.73;7.75;;;;;;;8.45;66.06;99171.56;6095649;23;20029;-81
2022/10/24 02:35:26;;;;;;;16.88;8.43;;;;;;;8.46;66.04;99177.63;6069560;23;20041;-80
2022/10/24 02:38:10;;;;;;;;;;;;;;;8.49;65.99;99177.63;6094228;23;20112;-79
2022/10/24 02:40:37;;;;;;;16.42;7.32;;;;;;;8.43;65.56;99168.13;6021926;23;19913;-78
2022/10/24 02:43:05;;;;;;;14.25;7.93;;;;;;;8.41;65.40;99182.84;6045391;23;20021;-77
2022/10/24 02:45:33;;;;;;;14.60;8.70;;;;;;;8.25;65.76;99161.41;6094810;23;20093;-80
2022/10/24 02:48:03;;;;;;;13.85;8.55;;;;;;;8.22;65.74;99167.47;6069714;23;20456;-79
2022/10/24 02:50:31;;;;;;;14.80;9.38;;;;;;;8.20;65.66;99160.59;6095309;23;20018;-80
2022/10/24 02:52:57;;;;;;;16.20;8.75;;;;;;;8.37;65.74;99189.78;6095074;23;20014;-80
2022/10/24 02:55:23;;;;;;;14.82;8.57;;;;;;;8.30;65.84;99177.75;6045589;23;20030;-76
2022/10/24 02:57:49;;;;;;;18.13;9.43;;;;;;;8.27;65.62;99178.66;6094816;23;20476;-81
2022/10/24 03:00:17;;;;;;;17.33;9.13;;;;;;;8.20;65.98;99164.03;6093771;23;20078;-77
2022/10/24 03:02:44;;;;;;;18.42;8.95;;;;;;;8.36;65.67;99192.41;6099000;23;20018;-80
2022/10/24 03:05:10;;;;;;;16.40;8.63;;;;;;;8.31;65.56;99179.47;6073953;23;20046;-77
2022/10/24 03:07:36;;;;;;;14.90;8.95;;;;;;;8.38;65.93;99198.44;6069812;23;20037;-78
2022/10/24 03:10:02;;;;;;;18.17;8.88;;;;;;;8.20;65.60;99171.78;6093669;23;20022;-80
2022/10/24 03:12:29;;;;;;;14.93;8.55;;;;;;;8.28;65.58;99187.28;6046456;23;20464;-78
2022/10/24 03:14:55;;;;;;;17.45;8.60;;;;;;;8.25;65.70;99184.72;6069862;23;20029;-77
2022/10/24 03:17:22;;;;;;;17.85;9.07;;;;;;;8.22;65.81;99182.16;6069413;23;20018;-79
2022/10/24 03:19:48;;;;;;;18.10;9.40;;;;;;;8.17;65.83;99178.75;6094957;23;20018;-79
2022/10/24 03:22:14;;;;;;;16.23;8.90;;;;;;;8.11;65.97;99177.94;6095625;23;20015;-83
2022/10/24 03:24:40;;;;;;;15.95;9.40;;;;;;;8.20;65.63;99202.06;6095958;23;20058;-80
2022/10/24 03:27:06;;;;;;;18.67;9.98;;;;;;;8.14;65.81;99198.63;6097350;23;20215;-81
2022/10/24 03:29:32;;;;;;;19.55;9.85;;;;;;;8.19;65.82;99208.09;6069805;23;20058;-83
2022/10/24 03:31:58;;;;;;;18.83;9.90;;;;;;;8.05;65.35;99205.63;6069597;23;20014;-79
2022/10/24 03:34:23;;;;;;;19.70;10.23;;;;;;;7.93;65.83;99209.19;6093640;23;20409;-82
2022/10/24 03:36:49;;;;;;;20.90;10.27;;;;;;;8.03;65.92;99228.09;6095209;23;20024;-77
2022/10/24 03:39:15;;;;;;;17.48;9.25;;;;;;;7.89;65.55;99210.94;6095521;23;20370;-80
2022/10/24 03:41:41;;;;;;;19.08;9.32;;;;;;;7.87;65.88;99215.25;6095821;23;20014;-82
2022/10/24 03:44:07;;;;;;;20.27;9.65;;;;;;;7.82;66.03;99220.50;6094888;23;20033;-80
2022/10/24 03:46:33;;;;;;;18.60;9.43;;;;;;;7.71;66.56;99201.56;6094348;23;20097;-80
2022/10/24 03:48:59;;;;;;;20.80;9.48;;;;;;;7.82;66.55;99217.91;6070534;23;20050;-81
2022/10/24 03:51:25;;;;;;;17.40;9.23;;;;;;;7.86;66.67;99226.50;6094324;23;20029;-78
2022/10/24 03:53:51;;;;;;;17.88;8.70;;;;;;;7.81;67.33;99229.13;6070762;23;20032;-81
2022/10/24 03:56:17;;;;;;;16.90;9.10;;;;;;;7.75;66.90;99215.34;6071320;23;20018;-78
2022/10/24 03:58:43;;;;;;;16.20;8.50;;;;;;;7.67;67.11;99210.22;6097346;23;20022;-79
2022/10/24 04:01:17;;;;;;;17.15;8.95;;;;;;;7.69;67.32;99222.28;6070887;23;20018;-80
2022/10/24 04:03:46;;;;;;;15.93;7.60;;;;;;;7.71;67.29;99232.63;6024973;23;20104;-80
2022/10/24 04:06:13;;;;;;;14.05;7.82;;;;;;;7.75;67.38;99259.38;6049835;23;20025;-80
2022/10/24 04:08:39;;;;;;;16.90;8.30;;;;;;;7.63;67.93;99248.22;6070955;23;20018;-78
2022/10/24 04:11:06;;;;;;;18.90;8.00;;;;;;;7.67;67.86;99255.13;6048352;23;20368;-78
2022/10/24 04:13:33;;;;;;;17.42;7.93;;;;;;;7.68;68.04;99258.53;6094637;23;20022;-77
2022/10/24 04:15:59;;;;;;;13.85;7.80;;;;;;;7.74;68.02;99260.22;6070522;23;20018;-78
2022/10/24 04:18:25;;;;;;;15.55;7.05;;;;;;;7.75;68.20;99262.84;6071167;23;20022;-80
2022/10/24 04:20:51;;;;;;;11.70;6.80;;;;;;;7.76;68.22;99267.16;6096498;23;20142;-79
2022/10/24 04:23:17;;;;;;;13.73;7.05;;;;;;;7.73;68.05;99256.78;6070939;23;20014;-80
2022/10/24 04:25:44;;;;;;;14.35;6.78;;;;;;;7.72;68.31;99262.84;6097437;23;20147;-77
2022/10/24 04:28:10;;;;;;;13.45;6.78;;;;;;;7.72;68.34;99265.44;6071789;23;20173;-77
2022/10/24 04:30:36;;;;;;;12.65;7.05;;;;;;;7.54;68.51;99246.53;6070497;23;20104;-78
2022/10/24 04:33:03;;;;;;;10.50;6.40;;;;;;;7.64;68.51;99259.44;6046938;23;20025;-79
2022/10/24 04:35:29;;;;;;;12.70;6.70;;;;;;;7.76;68.50;99285.28;6070864;23;20026;-77
2022/10/24 04:37:55;;;;;;;12.40;6.45;;;;;;;7.79;68.47;99282.66;6070471;23;20021;-81
2022/10/24 04:40:21;;;;;;;11.05;6.35;;;;;;;7.77;68.49;99284.41;6094929;23;20077;-80
2022/10/24 04:42:47;;;;;;;11.82;6.32;;;;;;;7.67;68.39;99264.59;6075691;23;20413;-79
2022/10/24 04:45:13;;;;;;;11.68;6.43;;;;;;;7.82;68.75;99292.13;6098073;23;20030;-79
2022/10/24 04:47:39;;;;;;;9.60;6.03;;;;;;;7.90;68.73;99289.50;6097546;23;20123;-82
2022/10/24 04:50:06;;;;;;;10.38;5.80;;;;;;;7.86;68.14;99287.78;6099051;23;20484;-80
2022/10/24 04:52:32;;;;;;;11.00;6.45;;;;;;;7.93;68.76;99300.72;6099610;23;20018;-80
2022/10/24 04:54:58;;;;;;;11.75;5.90;;;;;;;7.85;68.86;99286.94;6107885;23;20109;-76
2022/10/24 04:57:24;;;;;;;9.77;5.93;;;;;;;7.73;68.41;99268.88;6061547;23;20559;-78
2022/10/24 04:59:52;;;;;;;11.57;5.90;;;;;;;7.91;68.25;99294.69;6080627;23;20025;-79
2022/10/24 05:02:20;;;;;;;10.20;6.10;;;;;;;7.80;68.76;99276.63;6096902;23;20484;-80
2022/10/24 05:04:46;;;;;;;9.18;5.50;;;;;;;7.93;68.69;99290.38;6097212;23;20022;-81
2022/10/24 05:07:12;;;;;;;12.50;6.05;;;;;;;7.87;68.30;99286.94;6095997;23;20463;-81
2022/10/24 05:09:38;;;;;;;10.82;5.63;;;;;;;8.02;68.51;99307.59;6096209;23;20022;-80
2022/10/24 05:12:04;;;;;;;9.30;5.25;;;;;;;7.97;68.79;99314.50;6095963;23;20026;-81
2022/10/24 05:14:31;;;;;;;9.00;5.40;;;;;;;8.04;68.59;99323.09;6096681;23;20026;-82
2022/10/24 05:16:57;;;;;;;9.77;5.05;;;;;;;7.97;68.60;99309.34;6095138;23;20061;-81
2022/10/24 05:19:28;;;;;;;7.57;5.30;;;;;;;7.99;68.17;99324.00;6051900;23;20070;-79
2022/10/24 05:21:54;;;;;;;8.68;5.03;;;;;;;7.97;68.60;99317.94;6073144;23;20074;-82
2022/10/24 05:24:20;;;;;;;9.32;4.75;;;;;;;8.07;68.56;99328.28;6100397;23;20136;-77
2022/10/24 05:26:52;;;;;;;8.35;4.88;;;;;;;7.98;68.78;99308.47;6104579;23;20018;-81
2022/10/24 05:29:18;;;;;;;7.65;5.00;;;;;;;8.16;68.74;99337.72;6054558;23;20023;-79
2022/10/24 05:31:44;;;;;;;8.95;5.05;;;;;;;8.17;68.42;99336.84;6057351;23;20075;-78
2022/10/24 05:34:10;;;;;;;7.55;4.50;;;;;;;8.01;68.54;99316.22;6052370;23;20029;-81
2022/10/24 05:36:37;;;;;;;8.80;5.03;;;;;;;8.17;68.18;99344.63;6098836;23;20022;-76
2022/10/24 05:39:03;;;;;;;10.38;5.30;;;;;;;8.15;68.18;99331.69;6098781;23;20025;-79
2022/10/24 05:41:29;;;;;;;7.35;4.88;;;;;;;8.09;68.41;99319.59;6078929;23;20014;-79
2022/10/24 05:43:57;;;;;;;7.38;4.30;;;;;;;8.14;68.02;99322.19;6078729;23;20029;-79
2022/10/24 05:46:23;;;;;;;9.18;4.90;;;;;;;8.32;67.95;99354.88;6103189;23;20083;-80
2022/10/24 05:48:52;;;;;;;7.35;4.43;;;;;;;8.34;68.07;99349.69;6097605;23;20018;-80
2022/10/24 05:51:21;;;;;;;8.52;4.47;;;;;;;8.32;68.19;99354.88;6070541;23;20022;-84
2022/10/24 05:53:53;;;;;;;5.10;3.55;;;;;;;8.26;67.64;99360.97;6046384;23;20054;-82
2022/10/24 05:56:19;;;;;;;6.43;3.75;;;;;;;8.17;67.94;99353.25;6096233;23;20125;-78
2022/10/24 05:58:45;;;;;;;6.20;4.25;;;;;;;8.16;67.59;99343.78;6069528;23;20018;-81
2022/10/24 06:01:24;;;;;;;7.50;4.30;;;;;;;8.38;67.82;99369.56;6073074;23;20428;-78
2022/10/24 06:03:52;;;;;;;6.00;4.22;;;;;;;8.36;67.67;99368.72;6094200;23;20033;-78
2022/10/24 06:06:22;;;;;;;7.25;4.10;;;;;;;8.36;67.61;99359.19;6096092;23;20025;-78
2022/10/24 06:08:49;;;;;;;6.82;4.22;;;;;;;8.29;67.71;99354.91;6095864;23;20533;-83
2022/10/24 06:11:18;;;;;;;6.13;4.15;;;;;;;7.76;67.32;99272.31;6069381;23;20049;-80
2022/10/24 06:13:44;;;;;;;7.53;4.70;;;;;;;8.27;67.41;99367.03;6045679;23;20015;-81
2022/10/24 06:16:13;;;;;;;6.78;4.55;;;;;;;8.31;67.33;99352.31;6044152;23;20516;-79
2022/10/24 06:18:56;;;;;;;6.97;4.32;;;;;;;8.28;67.12;99356.66;6069077;23;20857;-83
2022/10/24 06:21:53;;;;;;;7.80;4.82;;;;;;;8.05;67.29;99314.47;6032960;23;20456;-82
2022/10/24 06:24:23;;;;;;;6.70;4.10;;;;;;;8.49;67.13;99361.75;6069760;23;20497;-79
2022/10/24 06:26:49;;;;;;;8.40;4.80;;;;;;;8.46;66.77;99351.34;6045752;23;20377;-80
2022/10/24 06:29:15;;;;;;;6.55;4.07;;;;;;;8.58;67.03;99374.63;6069789;23;20014;-79
2022/10/24 06:31:41;;;;;;;6.05;4.00;;;;;;;8.58;66.84;99374.63;6069477;23;20018;-79
2022/10/24 06:34:07;;;;;;;6.43;4.32;;;;;;;8.36;66.62;99341.03;6095014;23;20028;-80
2022/10/24 06:36:34;;;;;;;5.45;4.15;;;;;;;8.56;66.58;99361.69;6069515;23;20342;-81
2022/10/24 06:39:00;;;;;;;7.72;4.90;;;;;;;8.43;66.70;99350.50;6069625;23;20024;-79
2022/10/24 06:41:26;;;;;;;6.57;4.32;;;;;;;8.63;66.52;99380.63;6083428;23;20045;-81
2022/10/24 06:44:15;;;;;;;8.45;4.72;;;;;;;7.76;66.28;99238.66;6074980;23;20421;-77
2022/10/24 06:46:54;;;;;;;;;;;;;;;;;;;;;
2022/10/24 06:49:21;;;;;;;7.22;4.32;;;;;;;8.08;66.17;99279.00;6046231;23;20113;-82
2022/10/24 06:51:47;;;;;;;6.43;3.97;;;;;;;8.06;65.90;99285.09;6096936;23;20026;-82
2022/10/24 06:54:14;;;;;;;7.75;4.30;;;;;;;8.59;66.00;99351.28;6070429;23;20028;-80
2022/10/24 06:56:40;;;;;;;6.72;4.60;;;;;;;8.66;65.48;99354.69;6097109;23;20022;-78
2022/10/24 06:59:11;;;;;;;7.15;4.38;;;;;;;8.91;66.15;99388.22;6070675;23;20616;-80
2022/10/24 07:01:37;;;;;;;8.98;4.43;;;;;;;8.82;65.52;99362.31;6096081;23;20022;-80
2022/10/24 07:04:04;;;;;;;6.88;4.47;;;;;;;8.74;65.97;99342.50;6102242;23;20014;-78
2022/10/24 07:06:33;;;;;;;6.57;4.22;;;;;;;9.04;65.72;99388.97;6050217;23;20102;-80
2022/10/24 07:09:02;;;;;;;10.13;4.60;;;;;;;9.17;66.12;99392.28;6098432;23;20018;-80
2022/10/24 07:11:28;;;;;;;7.85;4.43;;;;;;;9.19;65.36;99372.34;6047564;23;20353;-80
2022/10/24 07:13:54;;;;;;;9.10;4.97;;;;;;;9.23;65.40;99355.88;6096954;23;20026;-80
2022/10/24 07:16:20;;;;;;;7.97;4.95;;;;;;;9.47;65.29;99379.84;6098245;23;20481;-82
2022/10/24 07:18:46;;;;;;;7.60;4.57;;;;;;;9.69;65.39;99385.69;6100630;23;20018;-80
2022/10/24 07:21:27;;;;;;;10.27;4.85;;;;;;;10.04;64.56;99383.53;6076133;23;20022;-78
2022/10/24 07:23:54;;;;;;;7.75;5.00;;;;;;;10.43;64.39;99393.41;6109859;23;20062;-80
2022/10/24 07:26:22;;;;;;;8.73;4.93;;;;;;;10.61;63.94;99387.91;6092995;23;20025;-80
2022/10/24 07:28:52;;;;;;;6.25;4.30;;;;;;;10.66;63.80;99391.31;6067801;23;20026;-78
2022/10/24 07:31:19;;;;;;;7.82;4.85;;;;;;;10.51;63.21;99384.59;6116440;23;20027;-79
2022/10/24 07:33:46;;;;;;;7.55;4.63;;;;;;;10.44;62.81;99395.13;6091945;23;20014;-79
2022/10/24 07:36:21;;;;;;;7.55;4.55;;;;;;;10.29;62.16;99396.16;6118244;23;20071;-78
2022/10/24 07:38:50;;;;;;;7.32;4.68;;;;;;;10.11;62.34;99392.94;6108161;23;20049;-81
2022/10/24 07:41:16;;;;;;;7.82;4.53;;;;;;;9.81;61.77;99366.50;6096522;23;20018;-80
2022/10/24 07:43:44;;;;;;;8.40;4.90;;;;;;;9.90;61.82;99396.69;6048477;23;20014;-81
2022/10/24 07:46:13;;;;;;;6.28;4.22;;;;;;;9.86;61.68;99403.66;6074354;23;20022;-78
2022/10/24 07:48:41;;;;;;;8.23;4.97;;;;;;;9.90;61.65;99413.13;6101442;23;20018;-80
2022/10/24 07:51:12;;;;;;;6.32;4.40;;;;;;;9.81;61.30;99400.28;6074543;23;20022;-80
2022/10/24 07:53:39;;;;;;;7.30;4.68;;;;;;;9.96;61.25;99414.78;6057186;23;20018;-79
2022/10/24 07:56:09;;;;;;;7.47;4.68;;;;;;;10.24;61.25;99398.84;6074701;23;20483;-82
2022/10/24 07:58:36;;;;;;;8.90;4.93;;;;;;;11.18;61.61;99404.34;6075846;23;20026;-80
2022/10/24 08:01:11;;;;;;;9.00;4.65;;;;;;;12.30;61.12;99387.38;6079623;23;20109;-81
2022/10/24 08:03:39;;;;;;;8.85;4.40;;;;;;;12.85;59.53;99392.19;6072826;23;20030;-77
2022/10/24 08:06:08;;;;;;;7.25;4.28;;;;;;;13.23;56.75;99405.19;6070326;23;20046;-80
2022/10/24 08:08:35;;;;;;;6.90;4.25;;;;;;;13.01;56.90;99337.81;6118146;23;20025;-79
2022/10/24 08:11:07;;;;;;;6.93;4.18;;;;;;;13.77;57.19;99374.97;6107184;23;20013;-78
2022/10/24 08:13:34;;;;;;;5.75;3.97;;;;;;;15.46;56.60;99384.47;6054397;23;20044;-78
2022/10/24 08:16:01;;;;;;;7.80;4.00;;;;;;;16.32;52.62;99397.94;6102113;23;20018;-81
2022/10/24 08:18:37;;;;;;;6.35;3.80;;;;;;;15.96;51.54;99389.66;6075846;23;20025;-77
2022/10/24 08:21:05;;;;;;;4.65;3.90;;;;;;;15.33;51.02;99384.03;6050329;23;20334;-81
2022/10/24 08:23:33;;;;;;;5.75;4.10;;;;;;;15.09;50.21;99411.97;6073154;23;20018;-80
2022/10/24 08:25:59;;;;;;;7.75;4.28;;;;;;;15.45;50.38;99377.50;6099523;23;20018;-80
2022/10/24 08:28:25;;;;;;;5.70;4.47;;;;;;;16.00;48.40;99397.44;6023507;23;20071;-80
2022/10/24 08:30:59;;;;;;;6.78;4.20;;;;;;;15.73;48.30;99415.88;6047694;23;20157;-79
2022/10/24 08:33:26;;;;;;;6.18;3.80;;;;;;;15.29;47.52;99411.25;6084505;23;20044;-82
2022/10/24 08:35:58;;;;;;;6.18;3.92;;;;;;;14.80;47.52;99403.31;6098878;23;20461;-78
2022/10/24 08:38:25;;;;;;;6.57;3.95;;;;;;;14.53;47.79;99429.41;6023611;23;20028;-79
2022/10/24 08:40:52;;;;;;;5.53;3.90;;;;;;;14.16;47.67;99403.47;6097585;23;20362;-79
2022/10/24 08:43:21;;;;;;;5.00;3.53;;;;;;;14.10;47.63;99405.44;6071492;23;20061;-78
2022/10/24 08:46:20;;;;;;;6.18;3.38;;;;;;;13.90;47.70;99429.53;6096039;23;20133;-77
2022/10/24 08:49:00;;;;;;;5.15;3.80;;;;;;;13.63;47.84;99426.78;6089995;23;20468;-78
2022/10/24 08:51:39;;;;;;;5.93;3.83;;;;;;;13.54;47.43;99439.22;6071168;23;20029;-81
2022/10/24 08:54:12;;;;;;;5.35;3.65;;;;;;;13.25;47.71;99430.34;6071935;23;20026;-81
2022/10/24 08:56:38;;;;;;;4.70;3.45;;;;;;;13.04;48.20;99443.97;6072735;23;20025;-79
2022/10/24 08:59:08;;;;;;;8.40;3.78;;;;;;;12.70;48.30;99443.00;6099457;23;20026;-80
2022/10/24 09:01:47;;;;;;;6.40;3.38;;;;;;;12.38;48.33;99459.41;6083254;23;20113;-78
2022/10/24 09:04:17;;;;;;;5.85;3.92;;;;;;;12.10;49.11;99441.72;6111682;23;20025;-77
2022/10/24 09:06:45;;;;;;;5.17;3.90;;;;;;;12.02;49.24;99467.94;6085063;23;20049;-80
2022/10/24 09:09:19;;;;;;;5.60;3.30;;;;;;;11.52;49.66;99441.94;6106342;23;20661;-81
2022/10/24 09:11:51;;;;;;;4.78;3.05;;;;;;;11.48;49.62;99471.53;6100108;23;20024;-81
2022/10/24 09:14:20;;;;;;;4.65;3.05;;;;;;;11.31;50.35;99477.91;6097483;23;20014;-82
2022/10/24 09:17:18;;;;;;;7.57;3.13;;;;;;;11.00;50.75;99460.19;6072055;23;20101;-77
2022/10/24 09:19:53;;;;;;;5.53;2.88;;;;;;;11.10;50.56;99482.59;6048265;23;20022;-81
2022/10/24 09:22:25;;;;;;;5.00;2.97;;;;;;;10.83;50.84;99469.13;6072575;23;20014;-81
2022/10/24 09:24:57;;;;;;;5.18;2.92;;;;;;;10.84;51.45;99496.88;6072994;23;20021;-79
2022/10/24 09:27:28;;;;;;;5.40;3.17;;;;;;;10.66;51.90;99484.13;6049722;23;20018;-80
2022/10/24 09:29:56;;;;;;;4.23;3.30;;;;;;;10.39;52.19;99476.66;6025222;23;20041;-80
2022/10/24 09:32:29;;;;;;;4.95;3.10;;;;;;;10.60;52.89;99507.63;6098417;23;20256;-81
2022/10/24 09:35:00;;;;;;;29.98;18.80;;;;;;;10.31;53.79;99483.69;6104348;23;20029;-78
2022/10/24 09:37:31;;;;;;;5.57;3.90;;;;;;;10.42;53.91;99506.13;6108241;23;20025;-81
2022/10/24 09:40:16;;;;;;;7.20;3.70;;;;;;;10.42;54.40;99513.94;6104710;23;20094;-78
2022/10/24 09:42:53;;;;;;;4.93;2.90;;;;;;;10.13;54.47;99487.38;6047609;23;20452;-79
2022/10/24 09:45:28;;;;;;;10.55;6.20;;;;;;;10.24;54.83;99489.84;6096455;23;20022;-80
2022/10/24 09:48:00;;;;;;;2.75;2.10;;;;;;;10.35;54.84;99503.59;6096343;23;20019;-81
2022/10/24 09:50:27;;;;;;;4.82;2.38;;;;;;;10.08;54.39;99448.44;6099189;23;20047;-80
2022/10/24 09:52:58;;;;;;;3.88;2.22;;;;;;;10.55;54.76;99516.34;6098312;23;20117;-81
2022/10/24 09:55:30;;;;;;;3.22;2.20;;;;;;;10.58;54.68;99497.25;6046321;23;20022;-79
2022/10/24 09:58:02;;;;;;;3.63;2.20;;;;;;;10.98;54.25;99509.69;6070407;23;20144;-79
2022/10/24 10:00:35;;;;;;;4.50;2.53;;;;;;;11.64;54.30;99532.06;6095121;23;20018;-80
2022/10/24 10:03:18;;;;;;;3.60;2.40;;;;;;;11.78;53.29;99505.78;6070754;23;20456;-80
2022/10/24 10:05:49;;;;;;;4.03;2.92;;;;;;;11.65;52.53;99473.84;6046547;23;20022;-78
2022/10/24 10:08:20;;;;;;;4.35;3.20;;;;;;;11.56;52.51;99509.59;6096064;23;20045;-81
2022/10/24 10:10:57;;;;;;;4.90;3.03;;;;;;;11.37;52.77;99532.50;6069589;23;20025;-81
2022/10/24 10:13:25;;;;;;;4.22;3.20;;;;;;;11.00;52.87;99517.47;6046083;23;20014;-80
2022/10/24 10:15:57;;;;;;;3.50;2.83;;;;;;;10.97;53.16;99539.22;6070170;23;20388;-81
2022/10/24 10:18:31;;;;;;;5.45;2.88;;;;;;;10.89;53.29;99515.03;6070187;23;20014;-78
2022/10/24 10:21:14;;;;;;;4.63;2.50;;;;;;;11.15;53.39;99529.38;6070676;23;20444;-78
2022/10/24 10:23:49;;;;;;;2.80;2.05;;;;;;;11.27;52.99;99533.53;6047296;23;20030;-82
2022/10/24 10:26:28;;;;;;;3.58;2.80;;;;;;;11.25;53.11;99501.44;6048929;23;20017;-79
2022/10/24 10:29:19;;;;;;;3.28;2.22;;;;;;;11.69;52.36;99538.91;6050137;23;20037;-80
2022/10/24 10:31:57;;;;;;;3.60;2.30;;;;;;;11.78;52.24;99539.66;6073055;23;20043;-80
2022/10/24 10:34:39;;;;;;;3.28;2.20;;;;;;;11.79;51.19;99526.59;6049757;23;20054;-80
2022/10/24 10:37:30;;;;;;;2.67;2.38;;;;;;;11.69;51.19;99533.72;6087232;23;20022;-79
2022/10/24 10:40:11;;;;;;;4.63;2.50;;;;;;;11.75;50.99;99546.63;6049673;23;20018;-82
2022/10/24 10:43:12;;;;;;;5.57;2.55;;;;;;;11.60;50.67;99533.84;6049209;23;20014;-82
2022/10/24 10:45:49;;;;;;;2.55;2.10;;;;;;;11.48;50.56;99553.16;6050911;23;20066;-80
2022/10/24 10:48:31;;;;;;;3.80;1.88;;;;;;;11.27;49.93;99550.03;6110808;23;20018;-79
2022/10/24 10:51:02;;;;;;;;;;;;;;;11.12;49.61;99551.16;6087455;23;20098;-80
2022/10/24 10:53:41;;;;;;;3.70;1.65;;;;;;;10.87;49.98;99521.97;6054887;23;19932;-81
2022/10/24 10:56:35;;;;;;;4.53;1.88;;;;;;;11.23;50.01;99555.31;6052358;23;20073;-81
2022/10/24 10:59:20;;;;;;;3.10;1.70;;;;;;;11.37;49.61;99565.53;6077872;23;20026;-81
2022/10/24 11:01:47;;;;;;;3.60;1.80;;;;;;;11.41;49.26;99567.19;6050297;23;20029;-81
2022/10/24 11:04:15;;;;;;;2.85;2.00;;;;;;;11.51;48.58;99555.72;6074219;23;20106;-82
2022/10/24 11:06:57;;;;;;;2.13;1.65;;;;;;;11.45;48.35;99566.28;6100763;23;20022;-78
2022/10/24 11:09:26;;;;;;;3.55;1.80;;;;;;;11.33;47.88;99561.22;6078530;23;20014;-79
2022/10/24 11:12:08;;;;;;;8.00;1.60;;;;;;;11.10;47.71;99552.03;6074816;23;20078;-79
2022/10/24 11:14:39;;;;;;;3.28;1.40;;;;;;;10.84;47.91;99535.03;6100746;23;20089;-80
2022/10/24 11:17:17;;;;;;;2.22;1.60;;;;;;;10.94;47.32;99559.19;6072614;23;20019;-81
2022/10/24 11:19:55;;;;;;;2.30;1.50;;;;;;;10.81;47.48;99558.53;6100257;23;20023;-80
2022/10/24 11:22:31;;;;;;;3.67;1.70;;;;;;;10.75;47.14;99572.47;6026731;23;20033;-83
2022/10/24 11:25:15;;;;;;;4.13;1.63;;;;;;;10.66;46.72;99565.66;6073206;23;20037;-83
2022/10/24 11:27:50;;;;;;;2.92;1.70;;;;;;;10.45;46.97;99571.13;6098344;23;20066;-79
2022/10/24 11:30:19;;;;;;;4.00;1.98;;;;;;;10.31;46.71;99573.84;6097492;23;20361;-81
2022/10/24 11:32:53;;;;;;;7.03;1.95;;;;;;;10.16;46.94;99570.53;6097353;23;20011;-79
2022/10/24 11:35:36;;;;;;;3.33;1.63;;;;;;;9.86;47.45;99550.94;6097641;23;20022;-79
2022/10/24 11:38:20;;;;;;;6.22;2.17;;;;;;;9.90;47.13;99573.44;6099698;23;20018;-78
2022/10/24 11:40:52;;;;;;;3.05;1.58;;;;;;;9.83;47.53;99574.34;6073718;23;20117;-81
2022/10/24 11:43:26;;;;;;;7.75;1.80;;;;;;;9.66;47.50;99567.56;6097158;23;20393;-78
2022/10/24 11:46:00;;;;;;;3.75;1.63;;;;;;;9.63;47.67;99571.03;6097510;23;20025;-81
2022/10/24 11:48:37;;;;;;;4.80;1.45;;;;;;;9.42;47.51;99548.72;6047985;23;20018;-78
2022/10/24 11:51:33;;;;;;;4.18;1.83;;;;;;;9.27;47.24;99539.31;6048811;23;20018;-80
2022/10/24 11:54:04;;;;;;;5.53;1.83;;;;;;;9.37;47.39;99573.00;6049298;23;20093;-83
2022/10/24 11:56:39;;;;;;;6.13;1.88;;;;;;;9.21;47.55;99583.50;6052842;23;20193;-82
2022/10/24 11:59:29;;;;;;;3.75;1.77;;;;;;;8.91;48.09;99575.03;6098034;23;20390;-83